Time;durP1;ratioP1;P1;durP2;ratioP2;P2;SDS_P1;SDS_P2;PMS_P1;PMS_P2;Temp;Humidity;BMP_temperature;BMP_pressure;BME280_temperature;BME280_humidity;BME280_pressure;Samples;Min_cycle;Max_cycle;Signal;HPM_P1;HPM_P2
2021/08/01 00:02:00;;;;;;;1.75;0.85;;;;;;;15.70;55.90;98557.41;1719479;81;20985;-63
2021/08/01 00:04:27;;;;;;;3.10;0.90;;;;;;;15.68;56.05;98568.05;1720234;82;20922;-63
2021/08/01 00:06:54;;;;;;;2.65;0.98;;;;;;;15.66;56.04;98564.70;1723956;81;21189;-62
2021/08/01 00:09:20;;;;;;;2.77;1.17;;;;;;;15.60;56.10;98558.17;1722992;81;21171;-62
2021/08/01 00:11:47;;;;;;;3.77;0.97;;;;;;;15.57;56.17;98558.45;1739582;80;21461;-62
2021/08/01 00:14:14;;;;;;;3.08;0.75;;;;;;;15.53;56.39;98564.09;1762045;80;20902;-62
2021/08/01 00:16:40;;;;;;;3.50;0.73;;;;;;;15.49;56.47;98562.67;1751892;80;20986;-62
2021/08/01 00:19:07;;;;;;;1.57;0.78;;;;;;;15.49;56.56;98557.41;1768355;80;20931;-62
2021/08/01 00:21:34;;;;;;;2.20;0.87;;;;;;;15.49;56.77;98560.90;1730140;81;21096;-62
2021/08/01 00:24:02;;;;;;;1.20;0.90;;;;;;;15.45;56.98;98555.05;1737313;81;20969;-62
2021/08/01 00:26:29;;;;;;;1.00;0.88;;;;;;;15.42;56.94;98555.31;1742742;81;21020;-62
2021/08/01 00:28:55;;;;;;;4.63;1.00;;;;;;;15.40;56.95;98554.63;1720331;81;20950;-62
2021/08/01 00:31:23;;;;;;;2.27;1.00;;;;;;;15.37;57.14;98548.30;1761203;79;21124;-62
2021/08/01 00:33:50;;;;;;;2.08;0.90;;;;;;;15.34;57.26;98539.84;1730493;80;20999;-63
2021/08/01 00:36:16;;;;;;;0.90;0.80;;;;;;;15.29;57.22;98538.94;1756539;80;20943;-63
2021/08/01 00:38:43;;;;;;;2.77;1.32;;;;;;;15.24;57.35;98535.87;1748004;80;20890;-62
2021/08/01 00:41:10;;;;;;;0.93;0.80;;;;;;;15.17;57.54;98530.28;1756335;80;20955;-62
2021/08/01 00:43:38;;;;;;;3.60;0.73;;;;;;;15.14;57.63;98533.66;1758379;80;20948;-62
2021/08/01 00:46:05;;;;;;;1.90;1.15;;;;;;;15.11;57.66;98536.55;1756903;80;21045;-63
2021/08/01 00:48:36;;;;;;;2.37;1.02;;;;;;;15.06;57.92;98535.61;1757833;80;21046;-62
2021/08/01 00:51:03;;;;;;;1.55;1.00;;;;;;;15.03;57.95;98541.13;1727846;80;20923;-63
2021/08/01 00:53:30;;;;;;;3.85;1.00;;;;;;;14.99;57.98;98555.02;1730673;80;21400;-63
2021/08/01 00:55:57;;;;;;;5.40;0.90;;;;;;;14.96;58.18;98548.71;1761834;80;21484;-63
2021/08/01 00:58:23;;;;;;;2.83;0.97;;;;;;;14.93;58.41;98551.60;1756848;80;21091;-63
2021/08/01 01:03:48;;;;;;;4.95;0.93;;;;;;;14.89;58.52;98552.80;1719084;81;20942;-63
2021/08/01 01:07:11;;;;;;;1.82;0.90;;;;;;;14.85;58.51;98551.41;1739245;81;21473;-62
2021/08/01 01:09:52;;;;;;;1.80;0.90;;;;;;;14.84;58.95;98549.72;1748219;80;20935;-63
2021/08/01 01:12:23;;;;;;;2.10;0.90;;;;;;;14.85;58.90;98551.41;1732841;81;21687;-63
2021/08/01 01:14:53;;;;;;;5.92;1.67;;;;;;;14.85;59.04;98551.41;1707529;81;20914;-63
2021/08/01 01:17:24;;;;;;;5.12;0.88;;;;;;;14.84;59.09;98554.98;1734904;81;20879;-63
2021/08/01 01:20:21;;;;;;;2.27;1.10;;;;;;;14.84;59.18;98554.98;1731595;81;21575;-62
2021/08/01 01:23:15;;;;;;;3.27;1.27;;;;;;;14.82;59.16;98551.67;1737690;81;20932;-63
2021/08/01 01:26:17;;;;;;;1.42;0.80;;;;;;;14.78;59.29;98554.18;1737068;81;21184;-61
2021/08/01 01:29:22;;;;;;;3.10;1.10;;;;;;;14.74;59.41;98557.55;1722279;81;20951;-62
2021/08/01 01:32:09;;;;;;;1.17;1.07;;;;;;;14.72;59.45;98558.63;1738747;81;21558;-62
2021/08/01 01:35:02;;;;;;;1.42;1.00;;;;;;;14.70;59.61;98555.30;1728998;81;20975;-62
2021/08/01 01:37:30;;;;;;;5.65;1.05;;;;;;;14.67;59.83;98570.00;1757846;80;20936;-62
2021/08/01 01:40:02;;;;;;;2.67;0.93;;;;;;;14.65;59.89;98573.26;1763062;80;21069;-62
2021/08/01 01:42:31;;;;;;;1.67;0.98;;;;;;;14.64;59.92;98569.77;1762354;80;21423;-62
2021/08/01 01:45:00;;;;;;;2.12;1.00;;;;;;;14.64;59.97;98565.00;1759466;80;21032;-62
2021/08/01 01:47:28;;;;;;;2.02;0.98;;;;;;;14.63;60.11;98559.41;1761773;80;20970;-62
2021/08/01 01:49:58;;;;;;;1.42;1.02;;;;;;;14.62;60.27;98566.91;1733091;80;21592;-62
2021/08/01 01:52:26;;;;;;;1.57;0.90;;;;;;;14.61;60.32;98577.08;1727770;80;21026;-62
2021/08/01 01:54:54;;;;;;;4.58;1.00;;;;;;;14.60;60.45;98574.11;1761940;78;20919;-63
2021/08/01 01:57:20;;;;;;;;;;;;;;;14.60;60.46;98570.17;1738077;81;20927;-62
2021/08/01 01:59:48;;;;;;;1.80;1.02;;;;;;;14.62;60.82;98567.77;1762872;78;20082;-62
2021/08/01 02:02:14;;;;;;;3.67;1.17;;;;;;;14.63;60.78;98568.11;1745026;81;26350;-62
2021/08/01 02:04:41;;;;;;;2.47;1.15;;;;;;;14.64;60.80;98568.94;1742928;81;21030;-62
2021/08/01 02:07:08;;;;;;;2.33;1.03;;;;;;;14.61;60.81;98580.53;1736859;81;21521;-62
2021/08/01 02:09:58;;;;;;;3.45;1.20;;;;;;;14.60;60.96;98599.06;1744839;80;20879;-62
2021/08/01 02:12:50;;;;;;;2.27;1.02;;;;;;;14.61;61.17;98599.41;1741248;81;20915;-62
2021/08/01 02:15:20;;;;;;;1.50;1.00;;;;;;;14.64;61.19;98592.09;1758385;80;20956;-62
2021/08/01 02:18:06;;;;;;;1.40;1.00;;;;;;;14.68;61.35;98594.02;1747535;80;21453;-62
2021/08/01 02:20:46;;;;;;;1.95;1.10;;;;;;;14.73;61.46;98602.33;1712449;80;20868;-62
2021/08/01 02:23:25;;;;;;;1.67;1.07;;;;;;;14.80;61.47;98603.50;1739387;81;20881;-62
2021/08/01 02:25:54;;;;;;;2.80;1.30;;;;;;;14.88;61.53;98598.45;1741426;81;20946;-62
2021/08/01 02:28:23;;;;;;;2.12;1.00;;;;;;;14.96;61.62;98603.91;1748856;81;20914;-62
2021/08/01 02:30:51;;;;;;;7.22;1.40;;;;;;;15.02;61.72;98602.56;1716350;81;21062;-62
2021/08/01 02:33:18;;;;;;;2.65;1.00;;;;;;;15.06;61.74;98593.94;1748975;81;21430;-62
2021/08/01 02:35:45;;;;;;;4.12;1.40;;;;;;;15.13;61.76;98604.30;1740292;81;21378;-62
2021/08/01 02:38:14;;;;;;;4.40;1.00;;;;;;;15.16;61.83;98611.93;1742422;81;20986;-62
2021/08/01 02:40:43;;;;;;;1.90;1.10;;;;;;;15.18;61.91;98617.91;1712533;81;20889;-62
2021/08/01 02:43:12;;;;;;;1.17;1.00;;;;;;;15.18;61.92;98613.96;1741419;81;21478;-62
2021/08/01 02:45:44;;;;;;;1.00;0.72;;;;;;;15.15;61.93;98614.19;1713366;81;20934;-62
2021/08/01 02:48:13;;;;;;;3.27;1.40;;;;;;;15.10;62.07;98613.28;1746151;81;20896;-62
2021/08/01 02:50:43;;;;;;;5.33;1.00;;;;;;;15.07;62.03;98619.25;1714702;81;21457;-62
2021/08/01 02:53:17;;;;;;;4.67;0.95;;;;;;;14.99;62.07;98610.22;1748466;81;20942;-62
2021/08/01 02:55:47;;;;;;;2.42;0.90;;;;;;;14.92;62.09;98616.94;1742805;81;21473;-63
2021/08/01 02:58:16;;;;;;;3.65;1.00;;;;;;;14.83;62.36;98613.77;1743761;81;20934;-62
2021/08/01 03:00:46;;;;;;;3.05;1.07;;;;;;;14.77;62.33;98619.53;1747781;81;20966;-62
2021/08/01 03:03:14;;;;;;;4.40;1.10;;;;;;;14.71;62.40;98612.16;1741368;81;21385;-62
2021/08/01 03:05:43;;;;;;;2.50;0.90;;;;;;;14.65;62.61;98611.34;1746867;81;20896;-62
2021/08/01 03:08:13;;;;;;;1.50;0.88;;;;;;;14.62;62.60;98610.25;1748438;81;20981;-62
2021/08/01 03:10:46;;;;;;;1.35;1.00;;;;;;;14.61;62.69;98616.48;1751327;81;21465;-62
2021/08/01 03:13:13;;;;;;;2.25;1.15;;;;;;;14.61;62.79;98612.54;1742187;81;20914;-62
2021/08/01 03:15:43;;;;;;;1.95;1.20;;;;;;;14.61;62.89;98611.23;1739917;81;20926;-62
2021/08/01 03:18:10;;;;;;;2.22;1.02;;;;;;;14.61;62.89;98616.48;1748467;81;21007;-62
2021/08/01 03:20:36;;;;;;;5.75;1.35;;;;;;;14.59;63.00;98619.25;1744603;81;21070;-62
2021/08/01 03:23:03;;;;;;;1.98;1.32;;;;;;;14.59;63.09;98615.77;1749967;81;20880;-62
2021/08/01 03:25:30;;;;;;;1.93;1.10;;;;;;;14.72;63.38;98615.13;1725195;83;20938;-62
2021/08/01 03:27:56;;;;;;;5.83;1.30;;;;;;;15.34;63.58;98615.63;1739539;82;20943;-62
2021/08/01 03:30:23;;;;;;;5.05;1.00;;;;;;;16.11;63.33;98607.75;1728561;81;20859;-62
2021/08/01 03:32:50;;;;;;;1.65;1.10;;;;;;;16.84;62.97;98609.59;1748329;80;21092;-62
2021/08/01 03:35:17;;;;;;;1.70;1.02;;;;;;;17.63;62.94;98607.98;1749886;81;20935;-62
2021/08/01 03:37:44;;;;;;;2.42;1.12;;;;;;;18.40;62.28;98602.47;1757934;81;20919;-62
2021/08/01 03:40:11;;;;;;;2.17;1.00;;;;;;;19.00;62.08;98615.96;1725674;81;20895;-63
2021/08/01 03:42:38;;;;;;;1.52;1.00;;;;;;;19.69;61.57;98616.96;1759318;81;20928;-62
2021/08/01 03:45:08;;;;;;;2.47;1.17;;;;;;;20.20;60.95;98619.16;1728069;81;22069;-63
2021/08/01 03:47:35;;;;;;;2.42;1.00;;;;;;;20.75;61.13;98617.80;1725343;81;20899;-63
2021/08/01 03:50:02;;;;;;;2.80;1.07;;;;;;;21.28;60.49;98616.97;1700382;82;21493;-63
2021/08/01 03:52:29;;;;;;;;;;;;;;;21.51;60.41;98614.00;1743077;81;21472;-63
2021/08/01 03:54:56;;;;;;;2.87;1.02;;;;;;;21.87;59.55;98609.55;1756068;81;20183;-63
2021/08/01 03:57:23;;;;;;;2.62;1.10;;;;;;;22.20;59.83;98610.78;1724497;81;21520;-63
2021/08/01 03:59:50;;;;;;;;;;;;;;;22.29;58.92;98613.72;1718351;81;20899;-63
2021/08/01 04:02:17;;;;;;;3.15;1.40;;;;;;;22.51;58.23;98607.59;1743417;81;20131;-63
2021/08/01 04:04:43;;;;;;;;;;;;;;;22.90;59.21;98613.31;1719606;81;21141;-62
2021/08/01 04:07:10;;;;;;;2.08;1.20;;;;;;;23.18;57.86;98602.14;1713432;81;20112;-63
2021/08/01 04:09:37;;;;;;;3.62;1.20;;;;;;;23.32;57.89;98593.34;1742428;81;21025;-63
2021/08/01 04:12:04;;;;;;;4.28;1.00;;;;;;;23.67;57.65;98602.48;1730859;81;21499;-63
2021/08/01 04:14:31;;;;;;;2.20;0.90;;;;;;;24.04;56.75;98602.58;1750074;81;21485;-63
2021/08/01 04:17:01;;;;;;;2.70;1.25;;;;;;;24.53;56.50;98596.59;1743722;81;21469;-63
2021/08/01 04:19:28;;;;;;;4.67;0.90;;;;;;;24.93;55.96;98605.00;1744234;81;20896;-64
2021/08/01 04:21:54;;;;;;;;;;;;;;;25.15;55.36;98612.00;1744474;81;21223;-63
2021/08/01 04:24:21;;;;;;;4.47;1.17;;;;;;;25.47;55.11;98613.77;1744123;81;20096;-63
2021/08/01 04:26:48;;;;;;;2.75;1.17;;;;;;;25.88;54.73;98617.04;1744816;81;20903;-63
2021/08/01 04:29:14;;;;;;;;;;;;;;;26.13;53.91;98609.31;1751028;81;21494;-63
2021/08/01 04:31:41;;;;;;;3.25;0.98;;;;;;;26.51;53.09;98613.70;1740426;81;20098;-64
2021/08/01 04:34:07;;;;;;;;;;;;;;;26.73;53.29;98613.03;1743850;81;21076;-64
2021/08/01 04:36:34;;;;;;;1.67;0.80;;;;;;;27.04;52.00;98611.62;1755185;80;20452;-64
2021/08/01 04:39:00;;;;;;;5.12;0.95;;;;;;;27.23;52.40;98612.69;1755680;80;21441;-63
2021/08/01 04:41:27;;;;;;;2.58;0.70;;;;;;;27.20;51.74;98610.42;1697250;82;20942;-64
2021/08/01 04:43:53;;;;;;;3.42;0.80;;;;;;;27.06;51.01;98610.09;1732560;81;20991;-64
2021/08/01 04:46:20;;;;;;;3.45;1.52;;;;;;;26.96;50.89;98609.95;1758199;80;21043;-64
2021/08/01 04:48:47;;;;;;;1.37;0.90;;;;;;;26.98;50.68;98615.94;1755736;80;21459;-63
2021/08/01 04:51:13;;;;;;;2.77;0.80;;;;;;;27.44;50.68;98625.84;1734044;81;20936;-63
2021/08/01 04:53:40;;;;;;;3.33;1.10;;;;;;;27.74;50.33;98622.71;1759834;80;21473;-64
2021/08/01 04:56:10;;;;;;;4.58;1.00;;;;;;;28.05;49.60;98631.94;1761211;80;21001;-63
2021/08/01 04:58:37;;;;;;;1.37;0.70;;;;;;;28.27;49.20;98625.77;1757489;80;21190;-63
2021/08/01 05:01:12;;;;;;;2.75;1.00;;;;;;;28.63;48.97;98631.92;1729507;81;20879;-63
2021/08/01 05:03:44;;;;;;;1.62;0.90;;;;;;;28.94;48.47;98627.58;1762133;79;20979;-64
2021/08/01 05:06:11;;;;;;;1.92;0.98;;;;;;;29.06;47.87;98622.36;1739714;81;21009;-64
2021/08/01 05:08:39;;;;;;;1.55;0.95;;;;;;;29.43;47.90;98627.30;1761994;80;20875;-63
2021/08/01 05:11:06;;;;;;;2.55;0.93;;;;;;;29.78;47.37;98630.83;1761016;79;21090;-64
2021/08/01 05:13:33;;;;;;;3.80;0.70;;;;;;;29.68;46.05;98646.66;1744221;81;20964;-64
2021/08/01 05:16:00;;;;;;;2.92;0.75;;;;;;;28.59;45.26;98638.73;1737389;81;21435;-63
2021/08/01 05:18:26;;;;;;;8.30;1.42;;;;;;;27.71;45.18;98643.25;1737797;81;20902;-63
2021/08/01 05:20:53;;;;;;;5.75;1.30;;;;;;;26.53;45.31;98647.79;1749606;80;20939;-63
2021/08/01 05:23:20;;;;;;;4.05;1.00;;;;;;;25.75;45.62;98643.66;1725606;81;21132;-63
2021/08/01 05:25:46;;;;;;;;;;;;;;;25.24;45.63;98650.08;1739218;81;20875;-63
2021/08/01 05:28:13;;;;;;;;;;;;;;;24.51;45.61;98652.01;1747075;80;20126;-63
2021/08/01 05:30:39;;;;;;;3.20;1.22;;;;;;;24.25;45.78;98650.62;1710120;81;20339;-63
2021/08/01 05:33:07;;;;;;;5.80;1.45;;;;;;;24.38;46.39;98657.15;1743420;81;21007;-63
2021/08/01 05:35:36;;;;;;;2.35;1.20;;;;;;;24.60;45.88;98647.38;1733486;82;21065;-63
2021/08/01 05:38:03;;;;;;;1.50;1.00;;;;;;;24.39;45.96;98649.45;1696750;82;21501;-63
2021/08/01 05:40:30;;;;;;;3.72;1.05;;;;;;;24.51;46.16;98652.01;1731219;82;20955;-63
2021/08/01 05:42:56;;;;;;;0.90;0.75;;;;;;;25.09;46.13;98655.45;1726577;82;20916;-63
2021/08/01 05:45:23;;;;;;;2.30;0.85;;;;;;;25.58;45.91;98653.32;1732188;82;20934;-63
2021/08/01 05:47:49;;;;;;;;;;;;;;;26.31;46.30;98647.58;1730967;81;21005;-64
2021/08/01 05:50:16;;;;;;;2.80;0.93;;;;;;;27.05;45.94;98645.92;1729222;81;20153;-64
2021/08/01 05:52:42;;;;;;;4.58;1.25;;;;;;;27.67;45.47;98651.39;1728793;81;20958;-64
2021/08/01 05:55:09;;;;;;;2.95;1.17;;;;;;;27.50;45.06;98655.54;1730232;82;20997;-64
2021/08/01 05:57:36;;;;;;;2.33;1.07;;;;;;;26.90;44.50;98640.24;1725419;81;20955;-63
2021/08/01 06:00:05;;;;;;;2.22;1.05;;;;;;;26.43;45.00;98649.98;1714774;81;21125;-64
2021/08/01 06:02:32;;;;;;;2.65;1.32;;;;;;;26.52;45.13;98656.00;1718864;82;20928;-63
2021/08/01 06:04:59;;;;;;;2.90;1.10;;;;;;;26.51;44.78;98661.88;1720995;82;20976;-63
2021/08/01 06:07:25;;;;;;;;;;;;;;;26.23;44.74;98662.46;1720839;82;20977;-63
2021/08/01 06:09:51;;;;;;;2.15;1.00;;;;;;;26.44;44.97;98651.65;1717035;82;20415;-64
2021/08/01 06:12:19;;;;;;;1.98;1.02;;;;;;;27.09;45.03;98656.55;1715643;82;21479;-63
2021/08/01 06:14:51;;;;;;;1.77;0.90;;;;;;;27.55;44.85;98650.38;1674892;82;20973;-64
2021/08/01 06:17:18;;;;;;;2.05;1.02;;;;;;;27.77;44.33;98646.42;1710729;81;20936;-64
2021/08/01 06:19:44;;;;;;;1.47;0.88;;;;;;;27.90;44.33;98642.94;1719767;82;21049;-64
2021/08/01 06:22:14;;;;;;;2.65;1.25;;;;;;;28.12;44.22;98651.54;1721612;82;20930;-64
2021/08/01 06:24:40;;;;;;;3.70;1.05;;;;;;;28.03;43.84;98650.10;1721937;82;21602;-64
2021/08/01 06:27:07;;;;;;;2.87;0.90;;;;;;;27.80;43.39;98648.72;1723001;82;20883;-63
2021/08/01 06:29:33;;;;;;;2.22;1.00;;;;;;;27.47;43.51;98643.89;1723922;81;20974;-64
2021/08/01 06:32:00;;;;;;;2.17;1.00;;;;;;;27.31;43.72;98647.31;1723145;82;20918;-64
2021/08/01 06:34:28;;;;;;;3.02;1.10;;;;;;;27.68;43.78;98650.38;1722120;82;20918;-63
2021/08/01 06:36:54;;;;;;;2.40;0.90;;;;;;;27.95;43.23;98655.70;1719705;82;21109;-63
2021/08/01 06:39:21;;;;;;;4.83;0.90;;;;;;;28.20;43.55;98653.95;1726018;82;20955;-64
2021/08/01 06:41:49;;;;;;;2.47;1.10;;;;;;;28.33;42.94;98651.23;1691759;82;20981;-64
2021/08/01 06:44:15;;;;;;;2.05;0.95;;;;;;;28.07;42.94;98659.39;1721126;82;21393;-64
2021/08/01 06:46:42;;;;;;;2.25;0.93;;;;;;;27.93;42.97;98661.29;1724792;82;21587;-64
2021/08/01 06:49:08;;;;;;;1.95;1.25;;;;;;;28.06;42.84;98661.26;1720309;82;21131;-64
2021/08/01 06:51:35;;;;;;;2.67;1.17;;;;;;;28.14;42.78;98659.36;1718744;82;20910;-64
2021/08/01 06:54:02;;;;;;;2.20;1.00;;;;;;;28.22;42.76;98653.76;1731343;81;21523;-63
2021/08/01 06:56:31;;;;;;;1.95;0.80;;;;;;;28.29;42.58;98655.39;1672614;82;21138;-64
2021/08/01 06:58:57;;;;;;;1.87;0.90;;;;;;;28.06;42.31;98656.38;1724025;82;20943;-64
2021/08/01 07:01:24;;;;;;;1.85;0.98;;;;;;;27.65;42.09;98656.97;1725198;82;21055;-63
2021/08/01 07:03:51;;;;;;;2.05;0.90;;;;;;;26.96;41.96;98654.67;1725722;82;20914;-64
2021/08/01 07:06:17;;;;;;;2.22;0.80;;;;;;;26.45;42.23;98660.50;1723389;81;20955;-65
2021/08/01 07:08:43;;;;;;;;;;;;;;;25.95;42.12;98658.00;1728271;82;20970;-64
2021/08/01 07:11:11;;;;;;;1.80;1.10;;;;;;;25.66;42.85;98661.19;1724746;82;20086;-65
2021/08/01 07:13:37;;;;;;;;;;;;;;;25.64;42.86;98664.56;1727864;82;21167;-64
2021/08/01 07:16:04;;;;;;;2.42;1.30;;;;;;;25.63;42.94;98670.94;1722041;82;20164;-65
2021/08/01 07:18:32;;;;;;;2.45;1.15;;;;;;;25.77;43.09;98657.67;1721793;82;20952;-63
2021/08/01 07:21:00;;;;;;;2.65;1.20;;;;;;;26.07;43.13;98658.26;1726098;81;20994;-64
2021/08/01 07:23:27;;;;;;;2.45;1.32;;;;;;;26.08;43.28;98656.73;1729314;82;20906;-64
2021/08/01 07:25:55;;;;;;;2.55;1.27;;;;;;;26.19;43.31;98661.22;1726704;81;21507;-63
2021/08/01 07:28:22;;;;;;;2.70;1.37;;;;;;;26.40;43.61;98658.41;1683711;82;21645;-65
2021/08/01 07:30:51;;;;;;;4.87;1.40;;;;;;;26.52;43.34;98658.20;1726576;82;21426;-63
2021/08/01 07:33:19;;;;;;;6.40;1.32;;;;;;;26.49;43.34;98663.89;1726236;82;20970;-64
2021/08/01 07:35:48;;;;;;;2.75;1.30;;;;;;;26.58;43.33;98662.41;1728331;82;20901;-64
2021/08/01 07:38:14;;;;;;;3.05;1.30;;;;;;;26.64;43.54;98668.31;1728202;82;21064;-65
2021/08/01 07:40:41;;;;;;;;;;;;;;;26.49;43.27;98667.91;1727926;82;21009;-64
2021/08/01 07:43:08;;;;;;;2.15;1.10;;;;;;;26.10;43.29;98666.73;1725934;82;20423;-63
2021/08/01 07:45:34;;;;;;;;;;;;;;;25.84;43.39;98665.23;1732518;82;21473;-64
2021/08/01 07:48:03;;;;;;;3.22;1.35;;;;;;;25.79;43.61;98670.31;1725914;82;20090;-64
2021/08/01 07:50:30;;;;;;;4.87;1.60;;;;;;;25.84;43.89;98664.72;1726402;82;21065;-63
2021/08/01 07:52:57;;;;;;;1.40;1.22;;;;;;;26.04;43.93;98662.16;1726454;82;20936;-64
2021/08/01 07:55:25;;;;;;;3.45;1.30;;;;;;;25.97;43.56;98666.66;1699632;82;21032;-64
2021/08/01 07:57:51;;;;;;;1.47;1.10;;;;;;;26.04;43.82;98664.83;1727174;82;21013;-64
2021/08/01 08:00:18;;;;;;;;;;;;;;;25.96;43.59;98666.32;1728956;82;20950;-64
2021/08/01 08:02:45;;;;;;;4.92;1.62;;;;;;;25.87;43.71;98659.49;1726004;82;21041;-64
2021/08/01 08:05:13;;;;;;;5.05;1.55;;;;;;;25.70;43.66;98674.16;1723080;81;21463;-64
2021/08/01 08:07:40;;;;;;;4.75;1.40;;;;;;;25.53;43.95;98670.44;1727404;81;20950;-65
2021/08/01 08:10:08;;;;;;;6.12;1.87;;;;;;;25.43;43.82;98680.63;1728151;82;24862;-65
2021/08/01 08:12:35;;;;;;;17.55;3.75;;;;;;;25.10;43.88;98683.83;1698186;82;21445;-64
2021/08/01 08:15:03;;;;;;;3.37;1.37;;;;;;;24.96;43.96;98683.39;1724399;82;21494;-64
2021/08/01 08:17:33;;;;;;;2.95;1.60;;;;;;;24.76;44.04;98681.84;1727895;82;20914;-64
2021/08/01 08:19:57;;;;;;;1.70;1.22;;;;;;;24.51;44.28;98681.36;1723060;82;21484;-64
2021/08/01 08:22:24;;;;;;;1.90;1.30;;;;;;;24.53;44.28;98684.64;1724309;82;20925;-64
2021/08/01 08:24:51;;;;;;;2.85;1.45;;;;;;;24.25;44.24;98695.96;1729401;82;20889;-64
2021/08/01 08:27:17;;;;;;;2.45;1.27;;;;;;;23.96;44.45;98707.98;1724729;82;21013;-64
2021/08/01 08:29:44;;;;;;;3.65;1.42;;;;;;;23.68;44.64;98715.22;1728743;81;20976;-64
2021/08/01 08:32:10;;;;;;;4.00;1.50;;;;;;;23.49;44.87;98715.73;1726207;82;21393;-64
2021/08/01 08:34:37;;;;;;;3.87;1.42;;;;;;;23.37;45.11;98715.33;1726741;82;21074;-62
2021/08/01 08:37:04;;;;;;;1.82;1.20;;;;;;;23.51;45.47;98720.37;1732264;81;22725;-63
2021/08/01 08:39:32;;;;;;;1.65;0.95;;;;;;;23.85;45.61;98720.74;1731434;80;21171;-63
2021/08/01 08:41:59;;;;;;;7.05;1.70;;;;;;;24.04;45.56;98719.90;1730430;82;20940;-62
2021/08/01 08:44:27;;;;;;;3.60;1.60;;;;;;;23.94;45.24;98724.66;1731381;81;20960;-63
2021/08/01 08:46:56;;;;;;;5.47;1.60;;;;;;;23.77;45.45;98722.66;1729663;82;20953;-63
2021/08/01 08:49:23;;;;;;;3.10;1.30;;;;;;;23.94;45.83;98727.33;1730943;82;20954;-62
2021/08/01 08:51:53;;;;;;;4.03;1.55;;;;;;;24.01;45.70;98729.09;1730622;82;21133;-62
2021/08/01 08:54:44;;;;;;;3.60;1.67;;;;;;;24.08;45.75;98730.50;1730517;82;20875;-62
2021/08/01 08:57:26;;;;;;;6.90;1.60;;;;;;;24.10;45.89;98732.48;1678862;83;20895;-62
2021/08/01 09:00:02;;;;;;;1.67;1.52;;;;;;;24.14;46.02;98732.44;1682119;83;20963;-63
2021/08/01 09:02:28;;;;;;;3.37;1.40;;;;;;;24.26;45.99;98724.31;1679976;83;20964;-63
2021/08/01 09:04:57;;;;;;;3.83;1.67;;;;;;;24.37;45.99;98730.17;1682789;83;21058;-63
2021/08/01 09:07:24;;;;;;;2.40;1.40;;;;;;;24.32;45.79;98723.56;1679222;84;20948;-63
2021/08/01 09:09:52;;;;;;;4.87;1.70;;;;;;;24.17;45.83;98730.76;1690161;83;20943;-63
2021/08/01 09:12:19;;;;;;;2.30;1.37;;;;;;;24.21;46.20;98733.88;1697221;83;20980;-63
2021/08/01 09:14:48;;;;;;;2.90;1.72;;;;;;;24.34;46.13;98726.88;1685502;83;20943;-63
2021/08/01 09:17:35;;;;;;;2.95;1.70;;;;;;;24.13;45.79;98728.12;1681520;83;21880;-63
2021/08/01 09:20:25;;;;;;;2.27;1.52;;;;;;;23.96;45.99;98726.65;1683113;83;21522;-63
2021/08/01 09:23:07;;;;;;;2.75;1.50;;;;;;;23.88;46.28;98737.70;1632167;87;20961;-62
2021/08/01 09:25:41;;;;;;;2.42;1.50;;;;;;;24.00;46.19;98740.77;1630543;87;21010;-64
2021/08/01 09:28:20;;;;;;;3.42;1.80;;;;;;;24.12;46.27;98743.81;1619280;86;20953;-63
2021/08/01 09:31:03;;;;;;;4.95;2.08;;;;;;;24.24;46.41;98739.66;1655233;83;21054;-63
2021/08/01 09:33:50;;;;;;;5.08;1.70;;;;;;;24.31;46.10;98732.59;1673466;83;21016;-63
2021/08/01 09:36:21;;;;;;;3.42;1.30;;;;;;;24.32;46.22;98736.91;1679455;84;21072;-63
2021/08/01 09:38:58;;;;;;;3.27;1.57;;;;;;;24.47;46.22;98740.09;1678038;84;21484;-63
2021/08/01 09:41:28;;;;;;;;;;;;;;;24.67;46.27;98731.82;1679011;84;20930;-63
2021/08/01 09:44:01;;;;;;;3.47;1.60;;;;;;;24.77;46.29;98734.21;1668588;84;21043;-63
2021/08/01 09:46:41;;;;;;;5.92;1.67;;;;;;;24.82;46.39;98734.48;1661149;84;20964;-63
2021/08/01 09:49:14;;;;;;;4.65;1.80;;;;;;;24.97;46.37;98729.91;1655801;85;21521;-63
2021/08/01 09:51:44;;;;;;;1.82;1.20;;;;;;;25.00;46.06;98723.36;1648568;85;20935;-63
2021/08/01 09:54:13;;;;;;;1.72;1.30;;;;;;;25.03;46.09;98721.65;1654967;85;20971;-63
2021/08/01 09:57:04;;;;;;;3.85;1.30;;;;;;;25.25;46.28;98715.02;1676231;84;49521;-63
2021/08/01 09:59:32;;;;;;;4.67;1.52;;;;;;;25.33;45.67;98708.21;1711980;81;20926;-63
2021/08/01 10:02:04;;;;;;;3.70;1.57;;;;;;;25.01;45.53;98708.98;1727984;81;20962;-63
2021/08/01 10:04:43;;;;;;;1.92;1.15;;;;;;;24.76;45.67;98712.03;1729311;82;20919;-63
2021/08/01 10:07:13;;;;;;;2.75;1.60;;;;;;;24.60;45.68;98703.42;1724694;82;20875;-63
2021/08/01 10:09:44;;;;;;;2.72;1.62;;;;;;;24.40;45.77;98708.48;1725202;82;20922;-63
2021/08/01 10:12:13;;;;;;;4.78;1.20;;;;;;;24.33;46.00;98711.05;1725094;82;20949;-63
2021/08/01 10:14:40;;;;;;;2.40;1.75;;;;;;;24.42;45.93;98701.10;1731077;82;20939;-63
2021/08/01 10:17:07;;;;;;;2.00;1.40;;;;;;;24.54;45.89;98696.99;1723970;81;21414;-63
2021/08/01 10:19:34;;;;;;;;;;;;;;;24.66;45.86;98703.48;1730302;82;20958;-63
2021/08/01 10:22:03;;;;;;;3.77;1.57;;;;;;;24.87;45.80;98707.20;1743670;81;21044;-63
2021/08/01 10:24:40;;;;;;;4.25;1.70;;;;;;;25.21;46.08;98704.72;1739721;80;20956;-62
2021/08/01 10:27:09;;;;;;;4.08;1.50;;;;;;;25.89;46.10;98704.25;1733367;81;20944;-63
2021/08/01 10:29:48;;;;;;;3.00;1.62;;;;;;;26.33;45.61;98703.89;1749405;80;20907;-63
2021/08/01 10:32:18;;;;;;;3.77;1.45;;;;;;;26.33;44.98;98695.86;1739416;80;20923;-63
2021/08/01 10:35:02;;;;;;;9.65;1.62;;;;;;;26.22;45.03;98699.61;1749410;81;21050;-63
2021/08/01 10:37:47;;;;;;;1.95;1.42;;;;;;;26.23;45.01;98705.27;1748749;81;20927;-63
2021/08/01 10:40:20;;;;;;;2.50;1.45;;;;;;;26.32;44.72;98708.09;1743856;80;20907;-63
2021/08/01 10:42:58;;;;;;;4.67;1.50;;;;;;;26.03;44.18;98707.32;1739295;81;20899;-63
2021/08/01 10:45:24;;;;;;;3.22;1.80;;;;;;;25.85;44.48;98708.32;1740206;81;20916;-63
2021/08/01 10:47:54;;;;;;;3.65;1.65;;;;;;;25.78;44.41;98717.61;1740872;81;21058;-63
2021/08/01 10:50:25;;;;;;;2.20;1.60;;;;;;;25.91;44.30;98707.56;1741738;81;20873;-63
2021/08/01 10:53:23;;;;;;;1.45;1.22;;;;;;;25.95;44.14;98719.51;1746436;81;20845;-63
2021/08/01 10:55:53;;;;;;;4.08;1.57;;;;;;;26.04;44.19;98718.84;1742285;81;21638;-63
2021/08/01 10:58:20;;;;;;;5.45;1.77;;;;;;;25.97;43.69;98714.80;1716040;81;21481;-63
2021/08/01 11:00:59;;;;;;;;;;;;;;;26.02;44.06;98719.05;1744341;81;21032;-63
2021/08/01 11:03:26;;;;;;;5.55;1.72;;;;;;;26.11;43.83;98719.20;1739750;81;20118;-63
2021/08/01 11:05:52;;;;;;;2.60;1.70;;;;;;;26.12;43.64;98720.84;1738849;81;20899;-63
2021/08/01 11:08:19;;;;;;;3.72;1.60;;;;;;;25.97;43.35;98722.82;1739676;81;20961;-63
2021/08/01 11:10:46;;;;;;;2.65;1.55;;;;;;;25.82;43.44;98724.23;1746229;81;20911;-63
2021/08/01 11:13:28;;;;;;;;;;;;;;;25.86;43.40;98722.84;1742621;81;21102;-63
2021/08/01 11:15:55;;;;;;;2.47;1.50;;;;;;;25.81;43.26;98728.44;1737734;81;20439;-63
2021/08/01 11:18:33;;;;;;;3.67;1.77;;;;;;;25.77;43.35;98725.84;1745815;81;21008;-63
2021/08/01 11:21:03;;;;;;;1.98;1.67;;;;;;;25.89;43.15;98728.31;1748604;80;20922;-63
2021/08/01 11:23:52;;;;;;;4.42;1.80;;;;;;;25.78;43.06;98731.50;1734009;80;20919;-63
2021/08/01 11:26:19;;;;;;;2.98;1.47;;;;;;;25.82;43.17;98735.42;1762014;80;21100;-63
2021/08/01 11:28:51;;;;;;;1.77;1.20;;;;;;;25.34;42.07;98736.05;1740141;80;20904;-64
2021/08/01 11:31:21;;;;;;;2.27;1.30;;;;;;;24.48;42.79;98740.44;1718871;81;20927;-65
2021/08/01 11:33:53;;;;;;;2.30;1.25;;;;;;;24.09;43.58;98744.18;1769320;78;20940;-64
2021/08/01 11:36:27;;;;;;;3.60;1.55;;;;;;;23.41;43.51;98737.45;1734447;80;20978;-63
2021/08/01 11:38:59;;;;;;;1.80;1.12;;;;;;;23.29;44.40;98737.52;1768815;78;21079;-64
2021/08/01 11:41:34;;;;;;;5.20;1.40;;;;;;;23.12;44.48;98739.98;1745566;81;20899;-63
2021/08/01 11:44:15;;;;;;;3.62;1.37;;;;;;;23.16;44.80;98733.28;1749900;80;20907;-64
2021/08/01 11:46:59;;;;;;;3.85;1.90;;;;;;;23.54;45.26;98741.33;1750699;80;21437;-65
2021/08/01 11:49:31;;;;;;;2.85;1.70;;;;;;;23.88;45.35;98735.55;1735914;81;20938;-64
2021/08/01 11:52:03;;;;;;;2.77;1.70;;;;;;;24.02;45.16;98740.57;1739229;81;21068;-64
2021/08/01 11:54:35;;;;;;;4.90;1.85;;;;;;;24.14;45.25;98739.09;1766671;80;20958;-65
2021/08/01 11:57:06;;;;;;;2.33;1.70;;;;;;;24.31;45.46;98736.59;1746517;80;20891;-65